createdAt,value
2023-04-24T00:01:29.950Z,12.07
2023-04-24T00:03:56.468Z,11.99
2023-04-24T00:06:22.822Z,11.95
2023-04-24T00:08:49.034Z,11.93
2023-04-24T00:11:15.253Z,11.94
2023-04-24T00:13:41.462Z,11.87
2023-04-24T00:16:07.678Z,11.89
2023-04-24T00:18:33.880Z,11.86
2023-04-24T00:21:00.196Z,11.80
2023-04-24T00:23:26.416Z,11.82
2023-04-24T00:25:52.623Z,11.76
2023-04-24T00:28:18.827Z,11.74
2023-04-24T00:30:45.043Z,11.78
2023-04-24T00:33:11.260Z,11.74
2023-04-24T00:35:37.453Z,11.71
2023-04-24T00:38:03.659Z,11.76
2023-04-24T00:40:29.888Z,11.77
2023-04-24T00:42:56.114Z,11.77
2023-04-24T00:45:22.307Z,11.82
2023-04-24T00:47:48.748Z,11.79
2023-04-24T00:50:15.020Z,11.80
2023-04-24T00:52:41.306Z,11.88
2023-04-24T00:55:07.663Z,11.85
2023-04-24T00:57:33.892Z,11.81
2023-04-24T01:00:00.189Z,11.87
2023-04-24T01:02:26.651Z,11.81
2023-04-24T01:04:52.997Z,11.81
2023-04-24T01:07:20.364Z,11.76
2023-04-24T01:09:46.562Z,11.82
2023-04-24T01:12:12.779Z,11.79
2023-04-24T01:14:38.972Z,11.83
2023-04-24T01:17:05.183Z,11.89
2023-04-24T01:19:31.398Z,11.86
2023-04-24T01:21:58.309Z,11.87
2023-04-24T01:24:24.505Z,11.87
2023-04-24T01:26:50.709Z,11.93
2023-04-24T01:29:16.905Z,11.93
2023-04-24T01:31:43.221Z,11.91
2023-04-24T01:34:09.459Z,11.87
2023-04-24T01:36:35.652Z,11.83
2023-04-24T01:39:01.961Z,11.86
2023-04-24T01:41:28.168Z,11.90
2023-04-24T01:43:54.379Z,11.83
2023-04-24T01:46:20.617Z,11.77
2023-04-24T01:48:47.276Z,11.81
2023-04-24T01:51:13.529Z,11.77
2023-04-24T01:53:39.738Z,11.72
2023-04-24T01:56:06.005Z,11.76
2023-04-24T01:58:32.223Z,11.70
2023-04-24T02:00:58.447Z,11.71
2023-04-24T02:03:24.868Z,11.73
2023-04-24T02:05:51.199Z,11.63
2023-04-24T02:08:17.423Z,11.72
2023-04-24T02:10:43.622Z,11.75
2023-04-24T02:13:09.824Z,11.77
2023-04-24T02:15:36.033Z,11.88
2023-04-24T02:18:02.368Z,11.88
2023-04-24T02:20:28.590Z,11.92
2023-04-24T02:22:54.793Z,11.98
2023-04-24T02:25:21.001Z,11.95
2023-04-24T02:27:47.207Z,11.87
2023-04-24T02:30:13.535Z,11.89
2023-04-24T02:32:39.745Z,11.86
2023-04-24T02:35:06.202Z,11.80
2023-04-24T02:37:32.429Z,11.75
2023-04-24T02:39:58.647Z,11.62
2023-04-24T02:42:24.852Z,11.54
2023-04-24T02:44:51.067Z,11.52
2023-04-24T02:47:17.264Z,11.58
2023-04-24T02:49:43.694Z,11.60
2023-04-24T02:52:10.173Z,11.57
2023-04-24T02:54:36.400Z,11.58
2023-04-24T02:57:02.627Z,11.58
2023-04-24T02:59:28.850Z,11.58
2023-04-24T03:01:55.128Z,11.57
2023-04-24T03:04:21.590Z,11.59
2023-04-24T03:06:47.876Z,11.51
2023-04-24T03:09:14.088Z,11.53
2023-04-24T03:11:40.374Z,11.56
2023-04-24T03:14:06.583Z,11.54
2023-04-24T03:16:32.832Z,11.49
2023-04-24T03:18:59.059Z,11.47
2023-04-24T03:21:25.257Z,11.44
2023-04-24T03:23:51.497Z,11.47
2023-04-24T03:26:17.712Z,11.42
2023-04-24T03:28:43.955Z,11.42
2023-04-24T03:31:10.197Z,11.46
2023-04-24T03:33:36.424Z,11.46
2023-04-24T03:36:02.694Z,11.34
2023-04-24T03:38:28.898Z,11.33
2023-04-24T03:40:55.108Z,11.33
2023-04-24T03:43:21.310Z,11.27
2023-04-24T03:45:47.562Z,11.26
2023-04-24T03:48:13.839Z,11.25
2023-04-24T03:50:40.035Z,11.23
2023-04-24T03:53:06.270Z,11.19
2023-04-24T03:55:32.468Z,11.21
2023-04-24T03:57:58.686Z,11.16
2023-04-24T04:00:24.942Z,11.13
2023-04-24T04:02:51.278Z,11.13
2023-04-24T04:05:17.618Z,11.07
2023-04-24T04:07:43.857Z,11.01
2023-04-24T04:10:10.172Z,10.96
2023-04-24T04:12:36.402Z,10.94
2023-04-24T04:15:02.598Z,10.95
2023-04-24T04:17:28.802Z,10.95
2023-04-24T04:19:55.026Z,10.87
2023-04-24T04:22:21.248Z,10.86
2023-04-24T04:24:47.488Z,10.94
2023-04-24T04:27:13.816Z,10.97
2023-04-24T04:29:40.028Z,10.94
2023-04-24T04:32:06.362Z,10.97
2023-04-24T04:34:32.640Z,11.05
2023-04-24T04:36:58.858Z,11.02
2023-04-24T04:39:25.067Z,10.99
2023-04-24T04:41:51.270Z,10.98
2023-04-24T04:44:17.485Z,11.01
2023-04-24T04:46:43.712Z,11.00
2023-04-24T04:49:09.924Z,10.97
2023-04-24T04:51:36.121Z,10.95
2023-04-24T04:54:02.332Z,11.04
2023-04-24T04:56:28.576Z,11.07
2023-04-24T04:58:54.794Z,11.04
2023-04-24T05:01:21.004Z,11.02
2023-04-24T05:03:47.467Z,11.12
2023-04-24T05:06:13.816Z,11.23
2023-04-24T05:08:40.036Z,11.24
2023-04-24T05:11:06.297Z,11.46
2023-04-24T05:13:39.769Z,11.90
2023-04-24T05:16:07.211Z,12.25
2023-04-24T05:18:33.484Z,12.54
2023-04-24T05:20:59.733Z,12.60
2023-04-24T05:23:25.984Z,13.25
2023-04-24T05:25:52.223Z,14.60
2023-04-24T05:28:18.473Z,15.39
2023-04-24T05:30:44.729Z,16.11
2023-04-24T05:33:11.123Z,16.55
2023-04-24T05:35:37.321Z,15.85
2023-04-24T05:38:03.595Z,15.24
2023-04-24T05:40:29.838Z,15.53
2023-04-24T05:42:56.147Z,15.15
2023-04-24T05:45:22.348Z,15.40
2023-04-24T05:47:48.614Z,15.35
2023-04-24T05:50:14.846Z,15.44
2023-04-24T05:52:41.068Z,15.41
2023-04-24T05:55:07.378Z,15.43
2023-04-24T05:57:33.591Z,15.73
2023-04-24T05:59:59.807Z,15.45
2023-04-24T06:02:26.168Z,14.79
2023-04-24T06:04:52.656Z,14.50
2023-04-24T06:07:19.009Z,13.94
2023-04-24T06:09:45.364Z,13.78
2023-04-24T06:12:11.680Z,13.57
2023-04-24T06:14:37.880Z,13.33
2023-04-24T06:17:04.108Z,13.50
2023-04-24T06:19:30.358Z,13.65
2023-04-24T06:21:56.565Z,13.73
2023-04-24T06:24:22.781Z,13.91
2023-04-24T06:26:48.991Z,13.88
2023-04-24T06:29:15.211Z,13.79
2023-04-24T06:31:41.450Z,14.18
2023-04-24T06:34:07.682Z,14.24
2023-04-24T06:36:33.928Z,14.10
2023-04-24T06:39:00.146Z,13.85
2023-04-24T06:41:26.403Z,13.68
2023-04-24T06:43:52.629Z,13.55
2023-04-24T06:46:18.891Z,13.43
2023-04-24T06:48:45.126Z,13.41
2023-04-24T06:51:11.337Z,13.52
2023-04-24T06:53:37.563Z,13.33
2023-04-24T06:56:03.816Z,13.35
2023-04-24T06:58:30.034Z,13.41
2023-04-24T07:00:56.398Z,13.44
2023-04-24T07:03:22.860Z,13.48
2023-04-24T07:05:49.152Z,13.44
2023-04-24T07:08:15.372Z,13.64
2023-04-24T07:10:41.591Z,13.85
2023-04-24T07:13:07.801Z,14.01
2023-04-24T07:15:34.022Z,14.02
2023-04-24T07:18:01.271Z,14.05
2023-04-24T07:20:28.885Z,13.97
2023-04-24T07:22:55.119Z,13.88
2023-04-24T07:25:21.416Z,14.21
2023-04-24T07:27:47.642Z,14.06
2023-04-24T07:30:14.058Z,13.93
2023-04-24T07:32:40.319Z,13.90
2023-04-24T07:35:06.683Z,13.66
2023-04-24T07:37:32.917Z,13.53
2023-04-24T07:39:59.145Z,13.49
2023-04-24T07:42:25.401Z,13.49
2023-04-24T07:44:51.647Z,13.38
2023-04-24T07:47:17.865Z,13.27
2023-04-24T07:49:44.309Z,13.28
2023-04-24T07:52:10.834Z,14.02
2023-04-24T07:54:37.052Z,15.37
2023-04-24T07:57:03.288Z,16.17
2023-04-24T07:59:29.507Z,16.08
2023-04-24T08:01:55.724Z,15.84
2023-04-24T08:04:22.085Z,16.14
2023-04-24T08:06:48.480Z,16.62
2023-04-24T08:09:14.702Z,16.35
2023-04-24T08:11:40.925Z,16.65
2023-04-24T08:14:07.157Z,16.40
2023-04-24T08:16:33.683Z,15.80
2023-04-24T08:18:59.975Z,15.80
2023-04-24T08:21:26.178Z,15.62
2023-04-24T08:23:52.387Z,15.73
2023-04-24T08:26:18.580Z,15.45
2023-04-24T08:28:44.786Z,15.15
2023-04-24T08:31:11.016Z,15.60
2023-04-24T08:33:37.254Z,16.07
2023-04-24T08:36:03.958Z,15.74
2023-04-24T08:38:30.185Z,15.34
2023-04-24T08:40:57.359Z,15.51
2023-04-24T08:43:23.561Z,15.30
2023-04-24T08:45:49.829Z,15.27
2023-04-24T08:48:27.265Z,16.05
2023-04-24T08:50:57.502Z,16.86
2023-04-24T08:53:23.732Z,17.49
2023-04-24T08:55:49.952Z,16.64
2023-04-24T08:58:16.900Z,16.19
2023-04-24T09:00:43.127Z,16.26
2023-04-24T09:03:09.430Z,15.82
2023-04-24T09:05:40.897Z,15.54
2023-04-24T09:08:07.136Z,15.23
2023-04-24T09:10:33.992Z,15.94
2023-04-24T09:13:00.312Z,16.54
2023-04-24T09:15:26.561Z,16.29
2023-04-24T09:17:52.926Z,16.69
2023-04-24T09:20:19.261Z,17.76
2023-04-24T09:22:45.822Z,17.72
2023-04-24T09:25:12.040Z,17.24
2023-04-24T09:27:38.239Z,17.09
2023-04-24T09:30:04.566Z,16.58
2023-04-24T09:32:30.785Z,17.24
2023-04-24T09:35:07.857Z,17.60
2023-04-24T09:37:42.629Z,17.59
2023-04-24T09:40:11.908Z,17.53
2023-04-24T09:42:39.048Z,18.29
2023-04-24T09:45:15.115Z,17.25
2023-04-24T09:47:43.172Z,18.66
2023-04-24T09:50:13.446Z,19.24
2023-04-24T09:52:43.640Z,18.28
2023-04-24T09:55:17.097Z,18.53
2023-04-24T09:57:48.233Z,17.68
2023-04-24T10:00:14.722Z,17.41
2023-04-24T10:02:40.963Z,17.95
2023-04-24T10:05:07.467Z,17.64
2023-04-24T10:07:33.900Z,17.55
2023-04-24T10:10:00.237Z,17.42
2023-04-24T10:12:27.576Z,17.08
2023-04-24T10:14:53.811Z,16.81
2023-04-24T10:17:20.081Z,16.79
2023-04-24T10:19:46.291Z,16.38
2023-04-24T10:22:12.536Z,16.03
2023-04-24T10:24:38.750Z,15.83
2023-04-24T10:27:04.949Z,15.78
2023-04-24T10:29:31.538Z,15.69
2023-04-24T10:31:57.748Z,15.34
2023-04-24T10:34:23.988Z,15.27
2023-04-24T10:36:51.623Z,15.13
2023-04-24T10:39:17.887Z,15.02
2023-04-24T10:41:44.108Z,14.94
2023-04-24T10:44:11.009Z,14.96
2023-04-24T10:46:37.536Z,15.25
2023-04-24T10:49:07.022Z,15.71
2023-04-24T10:51:48.475Z,16.11
2023-04-24T10:54:27.727Z,16.12
2023-04-24T10:56:54.171Z,16.22
2023-04-24T10:59:30.186Z,16.63
2023-04-24T11:01:56.469Z,16.91
2023-04-24T11:04:32.393Z,16.98
2023-04-24T11:06:58.618Z,16.87
2023-04-24T11:09:27.124Z,17.00
2023-04-24T11:11:54.027Z,16.88
2023-04-24T11:14:20.248Z,16.68
2023-04-24T11:16:52.007Z,16.55
2023-04-24T11:19:22.372Z,16.43
2023-04-24T11:22:14.876Z,16.08
2023-04-24T11:24:49.325Z,15.83
2023-04-24T11:27:18.587Z,15.55
2023-04-24T11:29:47.501Z,15.31
2023-04-24T11:32:16.912Z,15.01
2023-04-24T11:34:45.250Z,14.82
2023-04-24T11:37:11.479Z,14.66
2023-04-24T11:39:37.751Z,14.58
2023-04-24T11:42:04.104Z,14.50
2023-04-24T11:44:30.324Z,14.37
2023-04-24T11:46:56.933Z,14.22
2023-04-24T11:49:23.403Z,13.99
2023-04-24T11:51:53.511Z,13.98
2023-04-24T11:54:20.986Z,13.95
2023-04-24T11:56:47.667Z,13.94
2023-04-24T11:59:13.871Z,13.85
2023-04-24T12:01:43.870Z,13.73
2023-04-24T12:04:10.717Z,13.61
2023-04-24T12:06:37.079Z,13.57
2023-04-24T12:09:11.452Z,13.48
2023-04-24T12:11:53.194Z,13.46
2023-04-24T12:14:19.406Z,13.35
2023-04-24T12:16:48.354Z,13.17
2023-04-24T12:19:18.709Z,12.90
2023-04-24T12:21:44.911Z,12.54
2023-04-24T12:24:11.119Z,12.20
2023-04-24T12:26:37.319Z,12.06
2023-04-24T12:29:03.947Z,12.11
2023-04-24T12:31:30.262Z,12.35
2023-04-24T12:33:56.534Z,12.69
2023-04-24T12:36:22.753Z,13.24
2023-04-24T12:38:48.980Z,13.55
2023-04-24T12:41:15.322Z,13.91
2023-04-24T12:43:51.593Z,14.43
2023-04-24T12:46:18.413Z,14.59
2023-04-24T12:48:46.144Z,14.60
2023-04-24T12:51:12.443Z,14.54
2023-04-24T12:53:38.779Z,14.65
2023-04-24T12:56:05.257Z,14.86
2023-04-24T12:58:31.464Z,14.92
2023-04-24T13:00:57.736Z,15.10
2023-04-24T13:03:24.102Z,15.05
2023-04-24T13:05:50.440Z,15.55
2023-04-24T13:08:16.772Z,15.50
2023-04-24T13:10:43.099Z,15.14
2023-04-24T13:13:09.316Z,15.34
2023-04-24T13:15:35.541Z,15.52
2023-04-24T13:18:01.914Z,15.42
2023-04-24T13:20:28.196Z,15.32
2023-04-24T13:22:54.428Z,15.27
2023-04-24T13:25:20.643Z,15.41
2023-04-24T13:27:46.858Z,15.79
2023-04-24T13:30:13.113Z,16.35
2023-04-24T13:32:39.381Z,16.44
2023-04-24T13:35:05.732Z,16.56
2023-04-24T13:37:32.218Z,16.75
2023-04-24T13:39:58.645Z,16.36
2023-04-24T13:42:24.882Z,16.67
2023-04-24T13:44:51.114Z,16.60
2023-04-24T13:47:17.859Z,16.16
2023-04-24T13:49:44.126Z,16.46
2023-04-24T13:52:10.408Z,16.53
2023-04-24T13:54:42.271Z,16.73
2023-04-24T14:00:12.211Z,17.05
2023-04-24T14:02:38.510Z,16.97
2023-04-24T14:05:05.131Z,16.59
2023-04-24T14:07:33.484Z,16.35
2023-04-24T14:09:59.710Z,15.90
2023-04-24T14:12:28.314Z,16.11
2023-04-24T14:14:54.707Z,16.38
2023-04-24T14:17:20.918Z,16.02
2023-04-24T14:19:58.079Z,15.66
2023-04-24T14:22:24.826Z,15.66
2023-04-24T14:24:52.368Z,15.47
2023-04-24T14:27:18.730Z,15.40
2023-04-24T14:29:45.058Z,15.21
2023-04-24T14:32:11.347Z,15.23
2023-04-24T14:34:37.579Z,15.44
2023-04-24T14:37:06.975Z,15.46
2023-04-24T14:39:33.365Z,15.43
2023-04-24T14:41:59.574Z,15.13
2023-04-24T14:44:25.777Z,14.99
2023-04-24T14:46:52.038Z,14.82
2023-04-24T14:49:19.966Z,14.70
2023-04-24T14:51:46.163Z,14.82
2023-04-24T14:54:12.368Z,15.08
2023-04-24T14:56:38.574Z,15.27
2023-04-24T14:59:04.779Z,15.14
2023-04-24T15:01:31.041Z,15.15
2023-04-24T15:03:57.438Z,14.79
2023-04-24T15:06:23.745Z,14.48
2023-04-24T15:08:50.631Z,14.49
2023-04-24T15:11:17.079Z,14.62
2023-04-24T15:13:43.462Z,14.60
2023-04-24T15:16:09.871Z,14.63
2023-04-24T15:18:36.088Z,14.73
2023-04-24T15:21:02.286Z,14.73
2023-04-24T15:23:28.589Z,14.63
2023-04-24T15:25:54.815Z,14.42
2023-04-24T15:28:21.035Z,14.21
2023-04-24T15:30:47.303Z,14.22
2023-04-24T15:33:13.533Z,14.49
2023-04-24T15:35:39.902Z,14.67
2023-04-24T15:40:46.287Z,14.51
2023-04-24T15:43:12.524Z,14.32
2023-04-24T15:48:30.373Z,14.03
2023-04-24T15:50:56.604Z,14.07
2023-04-24T15:53:22.924Z,14.00
2023-04-24T15:55:52.400Z,13.91
2023-04-24T15:58:18.988Z,13.86
2023-04-24T16:00:45.312Z,13.92
2023-04-24T16:03:12.237Z,13.84
2023-04-24T16:05:38.511Z,14.02
2023-04-24T16:08:04.753Z,14.53
2023-04-24T16:10:30.976Z,14.80
2023-04-24T16:12:57.177Z,15.01
2023-04-24T16:15:23.395Z,14.78
2023-04-24T16:17:49.685Z,14.69
2023-04-24T16:20:15.921Z,14.63
2023-04-24T16:22:42.114Z,14.50
2023-04-24T16:25:08.551Z,14.35
2023-04-24T16:27:34.784Z,14.31
2023-04-24T16:30:01.129Z,14.32
2023-04-24T16:32:28.100Z,13.97
2023-04-24T16:34:54.314Z,13.99
2023-04-24T16:37:20.506Z,13.80
2023-04-24T16:39:46.713Z,13.69
2023-04-24T16:42:13.082Z,13.52
2023-04-24T16:47:50.074Z,13.29
2023-04-24T16:59:11.544Z,13.10
2023-04-24T17:01:37.764Z,13.13
2023-04-24T17:04:04.098Z,13.10
2023-04-24T17:06:30.379Z,13.05
2023-04-24T17:08:56.585Z,13.04
2023-04-24T17:11:22.803Z,12.91
2023-04-24T17:13:49.001Z,12.89
2023-04-24T17:16:15.341Z,12.79
2023-04-24T17:24:27.145Z,12.49
2023-04-24T17:26:56.401Z,12.42
2023-04-24T17:29:25.229Z,12.31
2023-04-24T17:31:51.482Z,12.29
2023-04-24T17:34:17.788Z,12.10
2023-04-24T17:36:43.999Z,11.95
2023-04-24T17:39:10.218Z,11.85
2023-04-24T17:41:36.434Z,11.77
2023-04-24T17:44:02.650Z,11.71
2023-04-24T17:46:28.926Z,11.64
2023-04-24T17:48:55.554Z,11.57
2023-04-24T17:51:21.922Z,11.51
2023-04-24T17:53:48.133Z,11.51
2023-04-24T17:56:14.360Z,11.41
2023-04-24T17:58:40.567Z,11.36
2023-04-24T18:01:06.865Z,11.37
2023-04-24T18:03:33.259Z,11.29
2023-04-24T18:05:59.577Z,11.23
2023-04-24T18:08:25.778Z,11.16
2023-04-24T18:10:51.982Z,11.02
2023-04-24T18:13:18.193Z,10.94
2023-04-24T18:15:44.450Z,10.80
2023-04-24T18:18:10.899Z,10.61
2023-04-24T18:20:37.119Z,10.28
2023-04-24T18:23:04.085Z,10.10
2023-04-24T18:25:30.293Z,9.87
2023-04-24T18:27:56.501Z,9.51
2023-04-24T18:30:22.931Z,9.39
2023-04-24T18:32:49.519Z,9.27
2023-04-24T18:35:16.393Z,9.09
2023-04-24T18:37:42.609Z,8.91
2023-04-24T18:40:09.338Z,8.95
2023-04-24T18:42:35.568Z,8.68
2023-04-24T18:45:01.968Z,8.62
2023-04-24T18:47:28.331Z,8.76
2023-04-24T18:49:54.608Z,8.65
2023-04-24T18:52:20.852Z,8.57
2023-04-24T18:54:47.399Z,8.59
2023-04-24T18:57:13.617Z,8.57
2023-04-24T18:59:39.820Z,8.60
2023-04-24T19:02:06.063Z,8.59
2023-04-24T19:04:32.356Z,8.60
2023-04-24T19:06:58.618Z,8.46
2023-04-24T19:09:24.828Z,8.45
2023-04-24T19:11:51.044Z,8.37
2023-04-24T19:14:17.252Z,8.35
2023-04-24T19:16:43.523Z,8.29
2023-04-24T19:19:09.772Z,8.29
2023-04-24T19:21:35.986Z,8.22
2023-04-24T19:24:02.198Z,8.20
2023-04-24T19:26:28.429Z,8.17
2023-04-24T19:28:54.943Z,8.15
2023-04-24T19:31:21.174Z,8.17
2023-04-24T19:33:47.384Z,8.17
2023-04-24T19:36:14.074Z,8.19
2023-04-24T19:38:40.266Z,8.19
2023-04-24T19:41:06.501Z,8.19
2023-04-24T19:43:32.789Z,8.11
2023-04-24T19:45:59.165Z,8.14
2023-04-24T19:48:25.444Z,8.13
2023-04-24T19:50:51.753Z,8.13
2023-04-24T19:53:17.987Z,8.13
2023-04-24T19:55:44.248Z,8.17
2023-04-24T19:58:10.450Z,8.11
2023-04-24T20:00:36.663Z,8.12
2023-04-24T20:03:03.075Z,8.10
2023-04-24T20:05:29.569Z,8.08
2023-04-24T20:07:55.802Z,8.13
2023-04-24T20:10:22.008Z,8.14
2023-04-24T20:12:48.228Z,8.12
2023-04-24T20:15:14.445Z,8.13
2023-04-24T20:17:40.710Z,8.11
2023-04-24T20:20:07.324Z,8.17
2023-04-24T20:22:33.622Z,8.18
2023-04-24T20:24:59.882Z,8.18
2023-04-24T20:27:26.162Z,8.22
2023-04-24T20:29:52.398Z,8.29
2023-04-24T20:32:18.602Z,8.26
2023-04-24T20:34:44.821Z,8.33
2023-04-24T20:37:11.284Z,8.37
2023-04-24T20:39:37.502Z,8.38
2023-04-24T20:42:03.761Z,8.41
2023-04-24T20:44:30.002Z,8.37
2023-04-24T20:46:56.234Z,8.34
2023-04-24T20:49:22.498Z,8.36
2023-04-24T20:51:48.694Z,8.37
2023-04-24T20:54:14.896Z,8.35
2023-04-24T20:56:44.128Z,8.36
2023-04-24T20:59:10.321Z,8.33
2023-04-24T21:01:36.536Z,8.36
2023-04-24T21:04:02.798Z,8.34
2023-04-24T21:06:29.288Z,8.35
2023-04-24T21:08:55.614Z,8.31
2023-04-24T21:11:21.826Z,8.37
2023-04-24T21:13:48.258Z,8.43
2023-04-24T21:16:14.666Z,8.42
2023-04-24T21:18:41.256Z,8.42
2023-04-24T21:21:08.027Z,8.43
2023-04-24T21:23:34.268Z,8.42
2023-04-24T21:26:00.524Z,8.43
2023-04-24T21:28:26.759Z,8.42
2023-04-24T21:30:52.977Z,8.47
2023-04-24T21:33:19.170Z,8.48
2023-04-24T21:35:45.382Z,8.46
2023-04-24T21:38:11.599Z,8.46
2023-04-24T21:40:37.817Z,8.56
2023-04-24T21:43:04.023Z,8.53
2023-04-24T21:45:30.336Z,8.54
2023-04-24T21:47:59.018Z,8.53
2023-04-24T21:50:25.278Z,8.52
2023-04-24T21:52:51.469Z,8.48
2023-04-24T21:55:17.738Z,8.58
2023-04-24T21:57:43.949Z,8.57
2023-04-24T22:00:12.610Z,8.52
2023-04-24T22:02:38.937Z,8.59
2023-04-24T22:05:05.235Z,8.57
2023-04-24T22:07:33.123Z,8.55
2023-04-24T22:09:59.423Z,8.59
2023-04-24T22:12:25.839Z,8.60
2023-04-24T22:14:52.037Z,8.64
2023-04-24T22:17:18.263Z,8.62
2023-04-24T22:19:44.478Z,8.62
2023-04-24T22:22:10.800Z,8.65
2023-04-24T22:24:37.034Z,8.63
2023-04-24T22:27:03.387Z,8.63
2023-04-24T22:29:30.261Z,8.60
2023-04-24T22:31:56.639Z,8.67
2023-04-24T22:34:23.449Z,8.66
2023-04-24T22:36:49.728Z,8.64
2023-04-24T22:39:15.982Z,8.60
2023-04-24T22:41:42.328Z,8.65
2023-04-24T22:44:08.867Z,8.64
2023-04-24T22:46:35.077Z,8.65
2023-04-24T22:49:01.338Z,8.66
2023-04-24T22:51:27.622Z,8.61
2023-04-24T22:53:54.532Z,8.61
2023-04-24T22:56:20.753Z,8.65
2023-04-24T22:58:46.949Z,8.65
2023-04-24T23:01:13.201Z,8.64
2023-04-24T23:03:39.676Z,8.59
2023-04-24T23:06:06.236Z,8.62
2023-04-24T23:08:32.442Z,8.59
2023-04-24T23:10:58.657Z,8.54
2023-04-24T23:13:24.875Z,8.53
2023-04-24T23:15:53.293Z,8.65
2023-04-24T23:18:20.881Z,8.59
2023-04-24T23:20:47.103Z,8.59
2023-04-24T23:23:13.310Z,8.54
2023-04-24T23:25:39.879Z,8.53
2023-04-24T23:28:06.096Z,8.52
2023-04-24T23:30:32.312Z,8.51
2023-04-24T23:32:58.569Z,8.52
2023-04-24T23:35:24.808Z,8.51
2023-04-24T23:37:51.030Z,8.45
2023-04-24T23:40:17.249Z,8.46
2023-04-24T23:42:43.454Z,8.49
2023-04-24T23:45:09.868Z,8.41
2023-04-24T23:47:36.571Z,8.42
2023-04-24T23:50:02.812Z,8.38
2023-04-24T23:52:29.039Z,8.37
2023-04-24T23:54:55.244Z,8.32
2023-04-24T23:57:21.451Z,8.26
2023-04-24T23:59:47.638Z,8.24
